createdAt,value
2023-03-17T00:02:43.318Z,848.00
2023-03-17T00:06:43.336Z,841.00
2023-03-17T00:10:43.438Z,839.00
2023-03-17T00:14:43.547Z,841.00
2023-03-17T00:18:43.617Z,833.00
2023-03-17T00:22:43.763Z,822.00
2023-03-17T00:26:43.876Z,828.00
2023-03-17T00:30:43.977Z,828.00
2023-03-17T00:34:44.214Z,827.00
2023-03-17T00:38:44.217Z,825.00
2023-03-17T00:42:44.305Z,825.00
2023-03-17T00:46:44.598Z,814.00
2023-03-17T00:50:44.581Z,816.00
2023-03-17T00:54:44.700Z,818.00
2023-03-17T00:58:44.912Z,816.00
2023-03-17T01:02:45.009Z,817.00
2023-03-17T01:06:45.134Z,808.00
2023-03-17T01:10:45.298Z,806.00
2023-03-17T01:14:45.468Z,800.00
2023-03-17T01:18:45.709Z,795.00
2023-03-17T01:22:45.781Z,795.00
2023-03-17T01:26:45.920Z,803.00
2023-03-17T01:30:46.059Z,782.00
2023-03-17T01:34:46.210Z,780.00
2023-03-17T01:38:46.368Z,781.00
2023-03-17T01:42:46.527Z,782.00
2023-03-17T01:46:46.701Z,779.00
2023-03-17T01:50:46.864Z,777.00
2023-03-17T01:54:47.008Z,771.00
2023-03-17T01:58:47.180Z,765.00
2023-03-17T02:02:47.935Z,764.00
2023-03-17T02:06:57.409Z,770.00
2023-03-17T02:10:48.419Z,766.00
2023-03-17T02:14:47.441Z,759.00
2023-03-17T02:18:47.358Z,761.00
2023-03-17T02:22:47.446Z,757.00
2023-03-17T02:26:47.576Z,754.00
2023-03-17T02:30:47.762Z,755.00
2023-03-17T02:34:47.919Z,747.00
2023-03-17T02:38:48.006Z,742.00
2023-03-17T02:42:48.156Z,742.00
2023-03-17T02:46:48.303Z,741.00
2023-03-17T02:50:48.446Z,739.00
2023-03-17T02:54:48.612Z,729.00
2023-03-17T02:58:48.754Z,730.00
2023-03-17T03:02:48.957Z,733.00
2023-03-17T03:06:49.056Z,734.00
2023-03-17T03:10:49.190Z,696.00
2023-03-17T03:14:49.337Z,686.00
2023-03-17T03:18:49.538Z,694.00
2023-03-17T03:22:49.691Z,684.00
2023-03-17T03:26:49.830Z,679.00
2023-03-17T03:30:50.021Z,682.00
2023-03-17T03:34:50.125Z,671.00
2023-03-17T03:38:50.305Z,667.00
2023-03-17T03:42:50.474Z,668.00
2023-03-17T03:46:50.658Z,673.00
2023-03-17T03:50:50.808Z,675.00
2023-03-17T03:54:50.959Z,652.00
2023-03-17T03:58:51.130Z,650.00
2023-03-17T04:02:51.300Z,648.00
2023-03-17T04:06:51.466Z,642.00
2023-03-17T04:10:51.662Z,661.00
2023-03-17T04:14:51.854Z,666.00
2023-03-17T04:18:52.076Z,645.00
2023-03-17T04:22:52.210Z,635.00
2023-03-17T04:26:52.516Z,637.00
2023-03-17T04:30:52.579Z,639.00
2023-03-17T04:34:52.787Z,642.00
2023-03-17T04:38:52.995Z,642.00
2023-03-17T04:42:53.197Z,632.00
2023-03-17T04:46:53.393Z,615.00
2023-03-17T04:50:53.379Z,614.00
2023-03-17T04:54:53.343Z,615.00
2023-03-17T04:58:53.304Z,612.00
2023-03-17T05:02:53.271Z,600.00
2023-03-17T05:06:53.242Z,591.00
2023-03-17T05:10:53.225Z,589.00
2023-03-17T05:14:53.182Z,594.00
2023-03-17T05:18:53.119Z,598.00
2023-03-17T05:22:53.101Z,597.00
2023-03-17T05:26:53.103Z,597.00
2023-03-17T05:30:53.141Z,587.00
2023-03-17T05:34:53.043Z,587.00
2023-03-17T05:38:52.988Z,583.00
2023-03-17T05:42:52.969Z,582.00
2023-03-17T05:46:52.930Z,579.00
2023-03-17T05:50:52.884Z,576.00
2023-03-17T05:54:52.869Z,574.00
2023-03-17T05:58:52.827Z,576.00
2023-03-17T06:02:52.799Z,566.00
2023-03-17T06:06:52.766Z,569.00
2023-03-17T06:10:52.983Z,564.00
2023-03-17T06:14:52.966Z,573.00
2023-03-17T06:18:52.912Z,565.00
2023-03-17T06:23:03.826Z,563.00
2023-03-17T06:26:53.840Z,564.00
2023-03-17T06:30:52.838Z,561.00
2023-03-17T06:34:53.029Z,562.00
2023-03-17T06:38:53.479Z,566.00
2023-03-17T06:42:52.946Z,577.00
2023-03-17T06:46:52.956Z,601.00
2023-03-17T06:50:52.963Z,637.00
2023-03-17T06:54:52.991Z,665.00
2023-03-17T06:58:52.959Z,670.00
2023-03-17T07:02:52.981Z,667.00
2023-03-17T07:06:52.745Z,672.00
2023-03-17T07:10:52.999Z,668.00
2023-03-17T07:14:52.928Z,665.00
2023-03-17T07:18:52.856Z,662.00
2023-03-17T07:22:52.836Z,663.00
2023-03-17T07:26:52.870Z,665.00
2023-03-17T07:30:52.775Z,661.00
2023-03-17T07:34:52.717Z,661.00
2023-03-17T07:38:53.007Z,667.00
2023-03-17T07:42:52.666Z,673.00
2023-03-17T07:46:53.017Z,683.00
2023-03-17T07:50:52.995Z,723.00
2023-03-17T07:54:53.021Z,632.00
2023-03-17T07:58:52.671Z,866.00
2023-03-17T08:03:06.918Z,940.00
2023-03-17T08:06:53.814Z,1004.00
2023-03-17T08:10:53.012Z,1199.00
2023-03-17T08:14:52.750Z,1302.00
2023-03-17T08:18:52.747Z,1435.00
2023-03-17T08:22:53.022Z,1524.00
2023-03-17T08:26:52.909Z,1643.00
2023-03-17T08:30:53.028Z,1763.00
2023-03-17T08:34:52.817Z,1864.00
2023-03-17T08:38:52.782Z,1955.00
2023-03-17T08:42:53.010Z,1542.00
2023-03-17T08:46:53.032Z,1707.00
2023-03-17T08:50:53.040Z,1994.00
2023-03-17T08:54:52.626Z,2029.00
2023-03-17T08:58:53.034Z,2165.00
2023-03-17T09:02:52.590Z,2248.00
2023-03-17T09:07:02.851Z,2396.00
2023-03-17T09:10:53.508Z,2477.00
2023-03-17T09:14:52.474Z,2645.00
2023-03-17T09:18:52.544Z,2692.00
2023-03-17T09:22:52.402Z,2811.00
2023-03-17T09:26:52.395Z,2905.00
2023-03-17T09:30:52.390Z,3006.00
2023-03-17T09:34:52.377Z,3111.00
2023-03-17T09:38:52.576Z,3183.00
2023-03-17T09:42:52.521Z,3176.00
2023-03-17T09:46:52.298Z,3170.00
2023-03-17T09:50:52.570Z,3233.00
2023-03-17T09:54:52.544Z,1968.00
2023-03-17T09:58:52.532Z,2469.00
2023-03-17T10:02:52.088Z,2545.00
2023-03-17T10:06:52.071Z,2669.00
2023-03-17T10:10:52.044Z,2825.00
2023-03-17T10:14:51.995Z,2918.00
2023-03-17T10:18:51.971Z,3025.00
2023-03-17T10:22:52.149Z,3108.00
2023-03-17T10:26:52.575Z,3223.00
2023-03-17T10:30:52.483Z,3308.00
2023-03-17T10:34:53.073Z,3443.00
2023-03-17T10:38:52.669Z,3527.00
2023-03-17T10:42:53.090Z,3710.00
2023-03-17T10:46:53.107Z,3733.00
2023-03-17T10:50:54.392Z,2299.00
2023-03-17T10:54:52.995Z,1871.00
2023-03-17T10:58:53.082Z,1602.00
2023-03-17T11:02:53.564Z,1846.00
2023-03-17T11:06:53.197Z,1885.00
2023-03-17T11:10:53.571Z,1980.00
2023-03-17T11:14:53.242Z,2013.00
2023-03-17T11:18:53.225Z,2025.00
2023-03-17T11:22:53.189Z,2142.00
2023-03-17T11:26:53.180Z,2158.00
2023-03-17T11:30:53.099Z,2203.00
2023-03-17T11:34:53.103Z,2243.00
2023-03-17T11:38:53.072Z,2234.00
2023-03-17T11:42:53.751Z,2201.00
2023-03-17T11:46:52.958Z,2173.00
2023-03-17T11:50:53.111Z,2081.00
2023-03-17T11:54:55.983Z,2052.00
2023-03-17T11:58:53.121Z,2021.00
2023-03-17T12:02:53.109Z,2009.00
2023-03-17T12:06:53.389Z,1989.00
2023-03-17T12:10:53.112Z,1919.00
2023-03-17T12:14:52.994Z,1954.00
2023-03-17T12:18:53.093Z,1872.00
2023-03-17T12:22:52.952Z,1906.00
2023-03-17T12:26:53.101Z,1819.00
2023-03-17T12:30:53.129Z,1797.00
2023-03-17T12:34:53.092Z,1760.00
2023-03-17T12:38:52.804Z,1767.00
2023-03-17T12:42:53.097Z,1732.00
2023-03-17T12:46:52.728Z,1723.00
2023-03-17T12:50:52.713Z,1583.00
2023-03-17T12:54:52.665Z,1500.00
2023-03-17T12:58:52.650Z,1560.00
2023-03-17T13:02:52.623Z,1548.00
2023-03-17T13:06:52.563Z,1484.00
2023-03-17T13:10:52.528Z,1473.00
2023-03-17T13:14:52.509Z,1490.00
2023-03-17T13:18:52.469Z,1550.00
2023-03-17T13:22:52.425Z,1566.00
2023-03-17T13:26:54.813Z,1569.00
2023-03-17T13:30:52.348Z,1555.00
2023-03-17T13:34:52.325Z,1548.00
2023-03-17T13:39:05.154Z,1542.00
2023-03-17T13:42:53.298Z,1528.00
2023-03-17T13:46:52.298Z,1524.00
2023-03-17T13:50:52.228Z,1513.00
2023-03-17T13:54:52.170Z,1500.00
2023-03-17T13:58:52.148Z,1492.00
2023-03-17T14:02:52.118Z,1480.00
2023-03-17T14:06:52.100Z,1470.00
2023-03-17T14:10:52.009Z,1462.00
2023-03-17T14:14:51.994Z,1457.00
2023-03-17T14:18:51.984Z,1443.00
2023-03-17T14:22:51.941Z,1437.00
2023-03-17T14:26:51.891Z,1427.00
2023-03-17T14:30:51.864Z,1420.00
2023-03-17T14:34:51.865Z,1423.00
2023-03-17T14:38:51.800Z,1417.00
2023-03-17T14:42:51.849Z,1401.00
2023-03-17T14:46:51.995Z,1389.00
2023-03-17T14:50:52.101Z,1377.00
2023-03-17T14:54:52.209Z,1370.00
2023-03-17T14:58:52.266Z,1366.00
2023-03-17T15:02:52.355Z,1362.00
2023-03-17T15:06:52.455Z,1350.00
2023-03-17T15:10:52.558Z,1348.00
2023-03-17T15:14:52.685Z,1338.00
2023-03-17T15:18:52.764Z,1331.00
2023-03-17T15:22:52.874Z,1322.00
2023-03-17T15:26:53.012Z,1310.00
2023-03-17T15:30:53.515Z,1304.00
2023-03-17T15:34:53.105Z,1290.00
2023-03-17T15:38:53.322Z,1277.00
2023-03-17T15:42:53.343Z,1267.00
2023-03-17T15:46:53.376Z,1256.00
2023-03-17T15:50:53.353Z,1241.00
2023-03-17T15:54:53.458Z,1223.00
2023-03-17T15:58:53.588Z,1214.00
2023-03-17T16:02:53.627Z,1205.00
2023-03-17T16:06:53.623Z,1185.00
2023-03-17T16:10:53.730Z,1188.00
2023-03-17T16:14:53.770Z,1179.00
2023-03-17T16:18:53.981Z,1174.00
2023-03-17T16:22:54.106Z,1168.00
2023-03-17T16:26:54.163Z,1156.00
2023-03-17T16:30:54.407Z,1153.00
2023-03-17T16:34:54.368Z,1145.00
2023-03-17T16:38:54.484Z,1129.00
2023-03-17T16:42:54.556Z,1122.00
2023-03-17T16:46:54.780Z,1123.00
2023-03-17T16:50:54.790Z,1115.00
2023-03-17T16:54:54.945Z,1100.00
2023-03-17T16:58:54.917Z,1096.00
2023-03-17T17:02:54.971Z,1097.00
2023-03-17T17:06:54.837Z,1085.00
2023-03-17T17:10:54.860Z,1075.00
2023-03-17T17:14:54.778Z,1069.00
2023-03-17T17:18:54.806Z,1066.00
2023-03-17T17:22:54.731Z,1056.00
2023-03-17T17:26:54.676Z,1059.00
2023-03-17T17:30:54.648Z,1061.00
2023-03-17T17:34:54.662Z,1059.00
2023-03-17T17:38:54.590Z,1049.00
2023-03-17T17:42:54.568Z,1041.00
2023-03-17T17:46:54.637Z,1037.00
2023-03-17T17:50:54.517Z,1025.00
2023-03-17T17:54:54.469Z,1025.00
2023-03-17T17:58:54.420Z,1015.00
2023-03-17T18:02:54.376Z,1013.00
2023-03-17T18:06:54.349Z,1002.00
2023-03-17T18:10:54.341Z,1008.00
2023-03-17T18:14:54.296Z,996.00
2023-03-17T18:18:54.328Z,999.00
2023-03-17T18:22:54.430Z,1001.00
2023-03-17T18:26:54.580Z,993.00
2023-03-17T18:30:54.771Z,998.00
2023-03-17T18:34:54.930Z,983.00
2023-03-17T18:38:55.137Z,985.00
2023-03-17T18:42:55.805Z,984.00
2023-03-17T18:46:55.500Z,988.00
2023-03-17T18:50:55.740Z,968.00
2023-03-17T18:54:55.921Z,963.00
2023-03-17T18:58:56.143Z,958.00
2023-03-17T19:02:56.109Z,954.00
2023-03-17T19:06:56.076Z,947.00
2023-03-17T19:10:56.031Z,938.00
2023-03-17T19:14:55.981Z,933.00
2023-03-17T19:18:55.964Z,926.00
2023-03-17T19:22:55.913Z,926.00
2023-03-17T19:26:55.904Z,920.00
2023-03-17T19:30:55.935Z,924.00
2023-03-17T19:34:55.826Z,916.00
2023-03-17T19:38:55.783Z,905.00
2023-03-17T19:42:55.868Z,900.00
2023-03-17T19:46:56.026Z,901.00
2023-03-17T19:50:56.106Z,897.00
2023-03-17T19:54:56.265Z,893.00
2023-03-17T19:58:56.415Z,890.00
2023-03-17T20:02:56.602Z,889.00
2023-03-17T20:06:56.775Z,885.00
2023-03-17T20:10:56.934Z,881.00
2023-03-17T20:14:57.512Z,884.00
2023-03-17T20:18:57.102Z,879.00
2023-03-17T20:22:57.107Z,871.00
2023-03-17T20:26:57.104Z,864.00
2023-03-17T20:30:57.130Z,862.00
2023-03-17T20:34:57.082Z,855.00
2023-03-17T20:38:57.083Z,849.00
2023-03-17T20:42:57.832Z,847.00
2023-03-17T20:46:57.084Z,844.00
2023-03-17T20:50:57.047Z,843.00
2023-03-17T20:54:57.055Z,847.00
2023-03-17T20:58:57.041Z,842.00
2023-03-17T21:02:57.070Z,840.00
2023-03-17T21:06:57.004Z,835.00
2023-03-17T21:10:57.018Z,834.00
2023-03-17T21:14:57.010Z,838.00
2023-03-17T21:18:57.039Z,831.00
2023-03-17T21:22:57.038Z,821.00
2023-03-17T21:26:57.056Z,815.00
2023-03-17T21:30:57.060Z,817.00
2023-03-17T21:34:57.110Z,813.00
2023-03-17T21:38:57.143Z,809.00
2023-03-17T21:42:57.167Z,811.00
2023-03-17T21:46:57.223Z,804.00
2023-03-17T21:50:57.281Z,801.00
2023-03-17T21:54:57.313Z,797.00
2023-03-17T21:58:57.411Z,800.00
2023-03-17T22:02:58.839Z,796.00
2023-03-17T22:06:57.408Z,791.00
2023-03-17T22:10:57.388Z,787.00
2023-03-17T22:14:57.381Z,784.00
2023-03-17T22:18:57.349Z,780.00
2023-03-17T22:22:57.306Z,782.00
2023-03-17T22:26:57.239Z,785.00
2023-03-17T22:30:57.242Z,784.00
2023-03-17T22:34:57.201Z,782.00
2023-03-17T22:38:57.168Z,776.00
2023-03-17T22:42:57.145Z,776.00
2023-03-17T22:46:57.094Z,771.00
2023-03-17T22:50:57.082Z,770.00
2023-03-17T22:54:57.040Z,767.00
2023-03-17T22:58:57.038Z,765.00
2023-03-17T23:02:56.959Z,759.00
2023-03-17T23:06:56.913Z,754.00
2023-03-17T23:10:56.890Z,750.00
2023-03-17T23:14:57.503Z,755.00
2023-03-17T23:18:56.828Z,755.00
2023-03-17T23:22:56.778Z,758.00
2023-03-17T23:26:56.759Z,754.00
2023-03-17T23:30:56.843Z,753.00
2023-03-17T23:34:56.927Z,751.00
2023-03-17T23:38:57.023Z,747.00
2023-03-17T23:42:57.091Z,743.00
2023-03-17T23:46:57.229Z,744.00
2023-03-17T23:50:57.376Z,741.00
2023-03-17T23:54:57.470Z,739.00
2023-03-17T23:58:57.593Z,742.00
